createdAt,value
2022-10-05T00:01:28.587Z,72.62
2022-10-05T00:04:07.986Z,72.83
2022-10-05T00:06:38.913Z,72.93
2022-10-05T00:09:16.737Z,72.85
2022-10-05T00:11:49.047Z,72.85
2022-10-05T00:14:21.577Z,72.91
2022-10-05T00:16:52.856Z,72.96
2022-10-05T00:19:29.987Z,72.66
2022-10-05T00:22:04.036Z,72.83
2022-10-05T00:24:34.963Z,72.86
2022-10-05T00:27:19.193Z,72.95
2022-10-05T00:29:51.743Z,72.90
2022-10-05T00:32:22.567Z,72.75
2022-10-05T00:34:53.434Z,72.85
2022-10-05T00:37:24.348Z,72.83
2022-10-05T00:39:55.333Z,72.65
2022-10-05T00:42:40.629Z,72.58
2022-10-05T00:45:18.831Z,72.59
2022-10-05T00:48:02.939Z,72.59
2022-10-05T00:51:09.258Z,72.72
2022-10-05T00:53:42.825Z,72.91
2022-10-05T00:56:30.527Z,72.70
2022-10-05T00:59:13.183Z,72.88
2022-10-05T01:01:52.168Z,72.97
2022-10-05T01:04:29.693Z,72.64
2022-10-05T01:07:13.632Z,72.70
2022-10-05T01:09:51.144Z,72.73
2022-10-05T01:12:29.154Z,72.93
2022-10-05T01:15:08.896Z,72.86
2022-10-05T01:17:46.287Z,72.78
2022-10-05T01:20:31.087Z,72.95
2022-10-05T01:23:23.081Z,72.96
2022-10-05T01:26:04.983Z,72.70
2022-10-05T01:28:39.357Z,72.72
2022-10-05T01:31:19.091Z,72.81
2022-10-05T01:34:00.114Z,72.67
2022-10-05T01:36:38.944Z,72.53
2022-10-05T01:39:18.843Z,72.82
2022-10-05T01:42:00.400Z,72.63
2022-10-05T01:44:38.931Z,72.71
2022-10-05T01:47:15.949Z,72.62
2022-10-05T01:49:55.081Z,72.78
2022-10-05T01:52:36.785Z,72.58
2022-10-05T01:55:19.846Z,72.57
2022-10-05T01:58:08.774Z,72.52
2022-10-05T02:00:50.836Z,72.54
2022-10-05T02:03:26.450Z,72.66
2022-10-05T02:06:01.296Z,72.62
2022-10-05T02:08:39.135Z,72.62
2022-10-05T02:11:13.333Z,72.52
2022-10-05T02:13:48.546Z,72.53
2022-10-05T02:16:25.867Z,72.52
2022-10-05T02:19:01.797Z,72.25
2022-10-05T02:21:37.444Z,72.50
2022-10-05T02:24:14.016Z,72.61
2022-10-05T02:26:46.748Z,72.53
2022-10-05T02:29:22.743Z,72.80
2022-10-05T02:31:59.213Z,72.38
2022-10-05T02:34:32.499Z,72.53
2022-10-05T02:37:23.106Z,72.31
2022-10-05T02:40:01.253Z,72.57
2022-10-05T02:42:40.606Z,72.59
2022-10-05T02:45:20.563Z,72.74
2022-10-05T02:47:59.510Z,72.77
2022-10-05T02:50:38.715Z,72.72
2022-10-05T02:53:21.555Z,72.71
2022-10-05T02:56:05.440Z,72.60
2022-10-05T02:58:45.578Z,72.85
2022-10-05T03:01:24.462Z,72.82
2022-10-05T03:04:06.355Z,72.92
2022-10-05T03:06:48.038Z,72.77
2022-10-05T03:09:21.951Z,73.00
2022-10-05T03:12:03.430Z,72.88
2022-10-05T03:14:40.892Z,72.77
2022-10-05T03:17:19.167Z,72.91
2022-10-05T03:20:05.846Z,72.71
2022-10-05T03:22:48.197Z,72.99
2022-10-05T03:25:43.756Z,72.86
2022-10-05T03:28:20.538Z,73.25
2022-10-05T03:31:01.537Z,72.96
2022-10-05T03:33:43.973Z,72.87
2022-10-05T03:36:26.405Z,72.88
2022-10-05T03:39:04.229Z,73.06
2022-10-05T03:41:43.192Z,72.93
2022-10-05T03:44:45.762Z,73.02
2022-10-05T03:47:26.691Z,73.04
2022-10-05T03:50:32.789Z,72.89
2022-10-05T03:53:07.875Z,72.99
2022-10-05T03:55:47.050Z,72.90
2022-10-05T03:58:21.927Z,73.13
2022-10-05T04:01:00.298Z,73.02
2022-10-05T04:03:36.162Z,73.01
2022-10-05T04:06:13.814Z,73.08
2022-10-05T04:08:51.791Z,73.25
2022-10-05T04:11:31.200Z,73.18
2022-10-05T04:14:07.577Z,72.97
2022-10-05T04:16:45.999Z,73.06
2022-10-05T04:19:23.184Z,72.99
2022-10-05T04:22:00.467Z,73.07
2022-10-05T04:24:36.181Z,73.34
2022-10-05T04:27:12.518Z,73.07
2022-10-05T04:29:47.290Z,73.16
2022-10-05T04:32:37.909Z,73.16
2022-10-05T04:35:27.247Z,73.24
2022-10-05T04:38:11.845Z,73.16
2022-10-05T04:40:59.755Z,73.16
2022-10-05T04:43:41.164Z,73.06
2022-10-05T04:46:29.324Z,73.03
2022-10-05T04:49:22.369Z,73.02
2022-10-05T04:52:01.289Z,73.03
2022-10-05T04:54:45.552Z,73.28
2022-10-05T04:57:24.982Z,73.08
2022-10-05T05:00:07.331Z,73.27
2022-10-05T05:02:51.913Z,73.15
2022-10-05T05:05:33.527Z,73.14
2022-10-05T05:08:18.379Z,73.39
2022-10-05T05:11:09.555Z,73.37
2022-10-05T05:14:06.025Z,73.22
2022-10-05T05:16:42.429Z,73.49
2022-10-05T05:19:37.595Z,73.59
2022-10-05T05:22:15.516Z,73.61
2022-10-05T05:25:02.371Z,73.46
2022-10-05T05:27:55.633Z,73.69
2022-10-05T05:30:35.435Z,73.43
2022-10-05T05:33:20.500Z,73.44
2022-10-05T05:36:19.481Z,73.39
2022-10-05T05:39:08.921Z,73.37
2022-10-05T05:41:44.827Z,73.37
2022-10-05T05:44:25.389Z,73.42
2022-10-05T05:47:04.350Z,73.04
2022-10-05T05:49:51.419Z,73.26
2022-10-05T05:52:28.848Z,73.26
2022-10-05T05:55:06.273Z,73.23
2022-10-05T05:57:42.667Z,73.09
2022-10-05T06:00:22.926Z,73.36
2022-10-05T06:03:09.680Z,73.45
2022-10-05T06:05:46.024Z,73.22
2022-10-05T06:08:22.830Z,73.27
2022-10-05T06:11:11.661Z,73.38
2022-10-05T06:13:53.695Z,73.38
2022-10-05T06:16:39.050Z,73.41
2022-10-05T06:19:15.860Z,73.37
2022-10-05T06:21:59.102Z,73.36
2022-10-05T06:24:38.051Z,73.19
2022-10-05T06:27:27.923Z,73.01
2022-10-05T06:30:09.058Z,72.83
2022-10-05T06:33:01.352Z,72.76
2022-10-05T06:35:51.647Z,72.74
2022-10-05T06:38:54.873Z,72.52
2022-10-05T06:41:38.482Z,72.48
2022-10-05T06:44:17.365Z,72.34
2022-10-05T06:47:07.717Z,72.08
2022-10-05T06:50:08.657Z,72.12
2022-10-05T06:54:01.996Z,72.07
2022-10-05T07:05:52.837Z,71.30
2022-10-05T07:09:17.945Z,71.31
2022-10-05T07:12:25.678Z,71.19
2022-10-05T07:15:44.277Z,71.20
2022-10-05T07:18:44.059Z,71.14
2022-10-05T07:22:09.538Z,71.22
2022-10-05T07:25:03.535Z,70.89
2022-10-05T07:28:38.746Z,70.74
2022-10-05T07:31:14.983Z,71.01
2022-10-05T07:54:18.996Z,66.56
2022-10-05T07:56:55.294Z,66.26
2022-10-05T07:59:31.563Z,66.16
2022-10-05T08:02:10.516Z,65.89
2022-10-05T08:04:46.313Z,66.03
2022-10-05T08:07:17.504Z,66.40
2022-10-05T08:09:50.818Z,66.27
2022-10-05T08:12:37.225Z,65.48
2022-10-05T08:15:14.690Z,64.65
2022-10-05T08:17:54.444Z,64.06
2022-10-05T08:20:40.123Z,63.81
2022-10-05T08:23:20.621Z,64.50
2022-10-05T08:26:07.882Z,64.81
2022-10-05T08:28:39.008Z,63.44
2022-10-05T08:31:20.151Z,61.97
2022-10-05T08:33:58.939Z,61.27
2022-10-05T08:36:53.714Z,61.11
2022-10-05T08:39:26.920Z,60.87
2022-10-05T08:42:35.231Z,60.55
2022-10-05T08:45:23.823Z,60.31
2022-10-05T08:48:30.558Z,60.74
2022-10-05T08:51:42.237Z,60.78
2022-10-05T08:55:30.023Z,60.57
2022-10-05T08:58:21.596Z,60.47
2022-10-05T09:01:01.908Z,59.95
2022-10-05T09:03:51.944Z,59.95
2022-10-05T09:06:51.057Z,60.11
2022-10-05T09:10:07.868Z,60.19
2022-10-05T09:13:18.072Z,59.90
2022-10-05T09:16:17.198Z,59.59
2022-10-05T09:19:06.469Z,59.19
2022-10-05T09:21:41.895Z,58.96
2022-10-05T09:24:27.971Z,58.82
2022-10-05T09:27:08.076Z,58.56
2022-10-05T09:30:22.745Z,58.65
2022-10-05T09:33:12.966Z,58.80
2022-10-05T09:36:21.678Z,58.62
2022-10-05T09:39:21.201Z,58.53
2022-10-05T09:42:08.061Z,58.85
2022-10-05T09:44:56.074Z,58.73
2022-10-05T09:48:03.414Z,58.58
2022-10-05T09:51:08.720Z,58.68
2022-10-05T09:53:54.635Z,58.31
2022-10-05T09:57:03.735Z,58.38
2022-10-05T10:00:03.105Z,58.19
2022-10-05T10:03:16.034Z,58.27
2022-10-05T10:06:20.444Z,57.72
2022-10-05T10:09:02.365Z,57.38
2022-10-05T10:11:44.357Z,57.20
2022-10-05T10:14:48.955Z,57.26
2022-10-05T10:17:43.423Z,57.30
2022-10-05T10:20:27.664Z,57.18
2022-10-05T10:23:20.479Z,56.95
2022-10-05T10:26:30.425Z,56.62
2022-10-05T10:29:30.717Z,56.32
2022-10-05T10:32:18.168Z,56.27
2022-10-05T10:35:15.556Z,55.98
2022-10-05T10:38:19.543Z,54.93
2022-10-05T10:41:20.810Z,54.91
2022-10-05T10:44:19.285Z,54.84
2022-10-05T10:46:53.853Z,54.67
2022-10-05T10:54:31.140Z,53.96
2022-10-05T10:57:09.523Z,53.86
2022-10-05T11:00:20.774Z,53.82
2022-10-05T11:03:27.324Z,53.37
2022-10-05T11:06:24.907Z,53.80
2022-10-05T11:09:23.624Z,53.48
2022-10-05T11:12:39.608Z,53.14
2022-10-05T11:15:35.326Z,53.02
2022-10-05T11:18:15.730Z,52.62
2022-10-05T11:21:04.422Z,52.53
2022-10-05T11:23:57.648Z,52.37
2022-10-05T11:26:46.545Z,52.64
2022-10-05T11:29:44.139Z,52.89
2022-10-05T11:32:35.916Z,53.19
2022-10-05T11:35:25.288Z,53.02
2022-10-05T11:38:09.301Z,52.84
2022-10-05T11:41:07.053Z,52.84
2022-10-05T11:44:09.946Z,52.87
2022-10-05T11:46:48.639Z,52.59
2022-10-05T11:49:27.230Z,52.70
2022-10-05T11:52:05.893Z,52.81
2022-10-05T11:57:53.674Z,52.82
2022-10-05T12:00:24.083Z,52.85
2022-10-05T12:03:21.632Z,52.96
2022-10-05T12:06:04.080Z,53.05
2022-10-05T12:08:44.614Z,53.34
2022-10-05T12:11:36.788Z,53.23
2022-10-05T12:14:16.404Z,53.07
2022-10-05T12:16:50.679Z,53.29
2022-10-05T12:19:29.195Z,53.41
2022-10-05T12:22:03.592Z,53.36
2022-10-05T12:25:01.259Z,53.37
2022-10-05T12:27:36.729Z,53.56
2022-10-05T12:30:13.916Z,53.28
2022-10-05T12:32:50.117Z,53.33
2022-10-05T12:35:43.531Z,53.46
2022-10-05T12:38:19.726Z,53.57
2022-10-05T12:40:53.726Z,53.74
2022-10-05T12:43:31.855Z,53.82
2022-10-05T12:46:17.109Z,53.66
2022-10-05T12:49:04.834Z,53.71
2022-10-05T12:51:40.481Z,53.68
2022-10-05T12:54:22.079Z,53.79
2022-10-05T12:56:55.511Z,53.70
2022-10-05T12:59:40.642Z,53.61
2022-10-05T13:02:21.348Z,53.73
2022-10-05T13:04:56.469Z,54.05
2022-10-05T13:07:35.163Z,54.16
2022-10-05T13:10:24.511Z,54.08
2022-10-05T13:13:05.126Z,54.00
2022-10-05T13:15:41.190Z,54.17
2022-10-05T13:18:18.617Z,54.28
2022-10-05T13:20:59.092Z,54.42
2022-10-05T13:23:38.667Z,54.78
2022-10-05T13:26:11.299Z,54.68
2022-10-05T13:28:48.130Z,54.67
2022-10-05T13:31:22.346Z,54.76
2022-10-05T13:34:06.048Z,54.76
2022-10-05T13:36:43.998Z,54.71
2022-10-05T13:39:30.511Z,54.70
2022-10-05T13:42:05.490Z,54.89
2022-10-05T13:44:42.983Z,55.17
2022-10-05T13:47:20.415Z,55.26
2022-10-05T13:49:54.845Z,55.23
2022-10-05T13:52:47.270Z,55.41
2022-10-05T13:55:33.669Z,55.45
2022-10-05T13:58:10.555Z,55.61
2022-10-05T14:00:48.034Z,55.77
2022-10-05T14:03:29.605Z,55.79
2022-10-05T14:05:59.425Z,55.83
2022-10-05T14:08:31.926Z,55.93
2022-10-05T14:11:19.573Z,56.10
2022-10-05T14:13:49.911Z,56.11
2022-10-05T14:16:24.341Z,56.27
2022-10-05T14:18:57.109Z,56.33
2022-10-05T14:21:27.038Z,56.50
2022-10-05T14:23:56.645Z,56.56
2022-10-05T14:26:35.969Z,56.71
2022-10-05T14:29:18.734Z,56.88
2022-10-05T14:31:58.142Z,57.03
2022-10-05T14:34:42.318Z,57.17
2022-10-05T14:37:19.833Z,57.39
2022-10-05T14:39:50.024Z,57.47
2022-10-05T14:42:22.425Z,57.58
2022-10-05T14:45:01.029Z,57.78
2022-10-05T14:47:40.417Z,57.86
2022-10-05T14:50:18.279Z,57.98
2022-10-05T14:53:00.913Z,57.99
2022-10-05T14:55:48.192Z,58.22
2022-10-05T14:58:32.681Z,58.31
2022-10-05T15:01:12.212Z,58.35
2022-10-05T15:03:50.920Z,58.42
2022-10-05T15:06:29.195Z,58.62
2022-10-05T15:09:17.710Z,58.73
2022-10-05T15:11:52.551Z,58.97
2022-10-05T15:14:25.103Z,59.07
2022-10-05T15:16:57.194Z,59.13
2022-10-05T15:19:31.242Z,59.28
2022-10-05T15:22:18.125Z,59.46
2022-10-05T15:25:00.356Z,59.58
2022-10-05T15:27:37.247Z,59.69
2022-10-05T15:30:12.023Z,59.84
2022-10-05T15:32:51.575Z,59.86
2022-10-05T15:35:45.221Z,59.97
2022-10-05T15:38:20.568Z,60.09
2022-10-05T15:41:09.817Z,60.24
2022-10-05T15:43:49.750Z,60.36
2022-10-05T15:46:25.404Z,60.36
2022-10-05T15:49:08.452Z,60.43
2022-10-05T15:51:47.206Z,60.58
2022-10-05T15:54:43.543Z,60.67
2022-10-05T15:57:21.102Z,60.74
2022-10-05T16:00:01.283Z,60.76
2022-10-05T16:02:41.146Z,60.81
2022-10-05T16:05:45.474Z,60.83
2022-10-05T16:08:48.462Z,60.87
2022-10-05T16:11:36.810Z,61.02
2022-10-05T16:14:16.819Z,61.15
2022-10-05T16:16:58.132Z,61.26
2022-10-05T16:19:50.133Z,61.25
2022-10-05T16:22:25.464Z,61.48
2022-10-05T16:25:08.218Z,61.64
2022-10-05T16:27:49.786Z,61.74
2022-10-05T16:30:20.734Z,61.93
2022-10-05T16:32:56.545Z,61.88
2022-10-05T16:35:34.776Z,62.00
2022-10-05T16:38:16.617Z,62.05
2022-10-05T16:40:59.643Z,62.10
2022-10-05T16:43:41.442Z,62.32
2022-10-05T16:46:22.001Z,62.35
2022-10-05T16:49:01.825Z,62.47
2022-10-05T16:51:39.627Z,62.52
2022-10-05T16:54:18.709Z,62.64
2022-10-05T16:56:53.945Z,62.68
2022-10-05T17:00:13.479Z,62.79
2022-10-05T17:03:04.696Z,63.06
2022-10-05T17:05:58.532Z,63.08
2022-10-05T17:08:45.168Z,63.16
2022-10-05T17:11:32.332Z,63.18
2022-10-05T17:14:19.599Z,63.28
2022-10-05T17:17:04.181Z,63.41
2022-10-05T17:19:47.106Z,63.59
2022-10-05T17:22:25.610Z,63.54
2022-10-05T17:25:08.033Z,63.48
2022-10-05T17:27:52.714Z,63.64
2022-10-05T17:30:37.972Z,63.64
2022-10-05T17:33:21.988Z,63.86
2022-10-05T17:36:11.712Z,63.89
2022-10-05T17:38:50.342Z,63.89
2022-10-05T17:41:21.668Z,63.97
2022-10-05T17:44:26.799Z,63.92
2022-10-05T17:46:59.800Z,64.02
2022-10-05T17:50:09.417Z,64.05
2022-10-05T17:52:59.987Z,64.17
2022-10-05T17:55:43.070Z,64.27
2022-10-05T17:59:02.646Z,64.28
2022-10-05T18:01:37.851Z,64.21
2022-10-05T18:04:49.749Z,64.35
2022-10-05T18:07:25.948Z,64.47
2022-10-05T18:09:57.640Z,64.46
2022-10-05T18:12:38.403Z,64.43
2022-10-05T18:15:46.079Z,64.52
2022-10-05T18:18:55.431Z,64.52
2022-10-05T18:21:38.088Z,64.64
2022-10-05T18:24:44.716Z,64.55
2022-10-05T18:27:31.129Z,64.73
2022-10-05T18:30:13.450Z,64.68
2022-10-05T18:33:10.892Z,64.76
2022-10-05T18:35:52.344Z,64.75
2022-10-05T18:38:43.276Z,64.78
2022-10-05T18:41:22.546Z,64.78
2022-10-05T18:44:05.600Z,64.81
2022-10-05T18:46:44.612Z,64.73
2022-10-05T18:49:29.278Z,64.86
2022-10-05T18:52:09.685Z,64.73
2022-10-05T18:54:50.639Z,64.78
2022-10-05T18:57:39.833Z,64.72
2022-10-05T19:00:17.048Z,64.67
2022-10-05T19:02:51.583Z,64.66
2022-10-05T19:05:47.970Z,64.58
2022-10-05T19:08:33.236Z,64.63
2022-10-05T19:11:17.674Z,64.61
2022-10-05T19:13:56.334Z,64.59
2022-10-05T19:16:41.364Z,64.54
2022-10-05T19:19:42.173Z,64.52
2022-10-05T19:22:18.955Z,64.47
2022-10-05T19:25:03.809Z,64.46
2022-10-05T19:27:40.957Z,64.45
2022-10-05T19:30:19.055Z,64.43
2022-10-05T19:33:07.271Z,64.46
2022-10-05T19:35:47.943Z,64.39
2022-10-05T19:38:26.040Z,64.43
2022-10-05T19:41:12.318Z,64.47
2022-10-05T19:44:05.939Z,64.37
2022-10-05T19:46:49.337Z,64.48
2022-10-05T19:49:37.151Z,64.45
2022-10-05T19:52:12.574Z,64.43
2022-10-05T19:54:42.309Z,64.49
2022-10-05T19:57:17.573Z,64.38
2022-10-05T19:59:49.931Z,64.40
2022-10-05T20:02:25.664Z,64.32
2022-10-05T20:04:56.079Z,64.45
2022-10-05T20:07:24.213Z,64.33
2022-10-05T20:09:58.665Z,64.37
2022-10-05T20:12:51.397Z,64.43
2022-10-05T20:15:41.176Z,64.50
2022-10-05T20:19:05.386Z,64.61
2022-10-05T20:21:39.467Z,64.52
2022-10-05T20:24:09.877Z,64.43
2022-10-05T20:27:00.555Z,64.50
2022-10-05T20:29:29.502Z,64.56
2022-10-05T20:31:57.854Z,64.60
2022-10-05T20:34:26.180Z,64.59
2022-10-05T20:36:54.325Z,64.46
2022-10-05T20:39:22.564Z,64.49
2022-10-05T20:41:50.991Z,64.40
2022-10-05T20:44:19.179Z,64.51
2022-10-05T20:46:47.681Z,64.67
2022-10-05T20:49:15.881Z,64.58
2022-10-05T20:51:44.076Z,64.66
2022-10-05T20:54:12.293Z,64.67
2022-10-05T20:56:42.015Z,64.60
2022-10-05T20:59:10.156Z,64.68
2022-10-05T21:01:38.411Z,64.67
2022-10-05T21:04:09.023Z,64.69
2022-10-05T21:06:37.242Z,64.79
2022-10-05T21:09:08.408Z,64.85
2022-10-05T21:11:36.704Z,64.91
2022-10-05T21:14:05.903Z,64.84
2022-10-05T21:16:37.475Z,64.86
2022-10-05T21:19:06.339Z,64.96
2022-10-05T21:21:34.956Z,64.94
2022-10-05T21:24:03.960Z,65.03
2022-10-05T21:26:32.584Z,65.04
2022-10-05T21:29:01.961Z,65.04
2022-10-05T21:31:30.523Z,65.13
2022-10-05T21:33:58.807Z,65.19
2022-10-05T21:36:27.120Z,65.24
2022-10-05T21:38:55.920Z,65.28
2022-10-05T21:41:24.469Z,65.33
2022-10-05T21:43:53.164Z,65.36
2022-10-05T21:46:25.814Z,65.34
2022-10-05T21:48:55.357Z,65.35
2022-10-05T21:51:26.560Z,65.46
2022-10-05T21:53:58.116Z,65.46
2022-10-05T21:56:31.330Z,65.55
2022-10-05T21:59:00.944Z,65.62
2022-10-05T22:01:29.181Z,65.62
2022-10-05T22:03:57.421Z,65.80
2022-10-05T22:06:25.667Z,65.84
2022-10-05T22:08:55.686Z,65.83
2022-10-05T22:11:24.120Z,65.85
2022-10-05T22:13:54.329Z,65.89
2022-10-05T22:16:26.496Z,65.97
2022-10-05T22:18:55.037Z,65.98
2022-10-05T22:21:23.241Z,66.14
2022-10-05T22:23:51.352Z,66.11
2022-10-05T22:26:22.847Z,66.17
2022-10-05T22:28:54.913Z,66.30
2022-10-05T22:31:23.239Z,66.37
2022-10-05T22:33:52.255Z,66.37
2022-10-05T22:36:21.388Z,66.39
2022-10-05T22:38:49.576Z,66.53
2022-10-05T22:41:17.953Z,66.50
2022-10-05T22:43:49.531Z,66.52
2022-10-05T22:46:18.384Z,66.67
2022-10-05T22:48:46.992Z,66.71
2022-10-05T22:51:15.266Z,66.74
2022-10-05T22:53:43.453Z,66.71
2022-10-05T22:56:13.120Z,66.86
2022-10-05T22:58:42.864Z,66.87
2022-10-05T23:01:13.407Z,67.00
2022-10-05T23:03:42.113Z,67.06
2022-10-05T23:06:12.999Z,67.13
2022-10-05T23:08:42.025Z,67.20
2022-10-05T23:11:12.222Z,67.18
2022-10-05T23:13:40.653Z,67.25
2022-10-05T23:16:10.662Z,67.20
2022-10-05T23:18:39.621Z,67.21
2022-10-05T23:21:09.340Z,67.33
2022-10-05T23:23:38.552Z,67.37
2022-10-05T23:26:08.473Z,67.39
2022-10-05T23:28:38.355Z,67.34
2022-10-05T23:31:08.744Z,67.45
2022-10-05T23:33:36.927Z,67.43
2022-10-05T23:36:07.785Z,67.42
2022-10-05T23:38:36.391Z,67.51
2022-10-05T23:41:05.623Z,67.56
2022-10-05T23:43:34.442Z,67.57
2022-10-05T23:46:04.178Z,67.57
2022-10-05T23:48:33.005Z,67.70
2022-10-05T23:51:01.190Z,67.77
2022-10-05T23:53:29.332Z,67.81
2022-10-05T23:55:57.539Z,67.82
2022-10-05T23:58:26.371Z,67.86
